sensor_id;sensor_type;location;lat;lon;timestamp;P1;durP1;ratioP1;P2;durP2;ratioP2
18190;SDS011;47004;51.366;12.348;2023-03-01T00:00:37;21.80;;;9.27;;
18190;SDS011;47004;51.366;12.348;2023-03-01T00:02:39;17.03;;;8.27;;
18190;SDS011;47004;51.366;12.348;2023-03-01T00:04:41;19.17;;;8.53;;
18190;SDS011;47004;51.366;12.348;2023-03-01T00:06:43;18.77;;;8.00;;
18190;SDS011;47004;51.366;12.348;2023-03-01T00:08:46;17.37;;;8.30;;
18190;SDS011;47004;51.366;12.348;2023-03-01T00:10:48;16.77;;;7.20;;
18190;SDS011;47004;51.366;12.348;2023-03-01T00:12:50;17.03;;;7.93;;
18190;SDS011;47004;51.366;12.348;2023-03-01T00:14:52;15.30;;;7.50;;
18190;SDS011;47004;51.366;12.348;2023-03-01T00:16:56;16.87;;;7.73;;
18190;SDS011;47004;51.366;12.348;2023-03-01T00:18:58;17.70;;;8.10;;
18190;SDS011;47004;51.366;12.348;2023-03-01T00:21:00;15.37;;;7.20;;
18190;SDS011;47004;51.366;12.348;2023-03-01T00:23:02;17.10;;;7.43;;
18190;SDS011;47004;51.366;12.348;2023-03-01T00:25:04;14.10;;;7.20;;
18190;SDS011;47004;51.366;12.348;2023-03-01T00:27:06;18.67;;;7.90;;
18190;SDS011;47004;51.366;12.348;2023-03-01T00:29:08;15.93;;;7.23;;
18190;SDS011;47004;51.366;12.348;2023-03-01T00:31:11;12.93;;;7.27;;
18190;SDS011;47004;51.366;12.348;2023-03-01T00:33:15;15.87;;;7.10;;
18190;SDS011;47004;51.366;12.348;2023-03-01T00:35:17;14.67;;;6.77;;
18190;SDS011;47004;51.366;12.348;2023-03-01T00:37:19;17.53;;;7.70;;
18190;SDS011;47004;51.366;12.348;2023-03-01T00:39:21;16.67;;;7.30;;
18190;SDS011;47004;51.366;12.348;2023-03-01T00:41:24;13.23;;;6.93;;
18190;SDS011;47004;51.366;12.348;2023-03-01T00:43:26;13.13;;;7.00;;
18190;SDS011;47004;51.366;12.348;2023-03-01T00:45:30;12.40;;;6.50;;
18190;SDS011;47004;51.366;12.348;2023-03-01T00:47:34;15.77;;;7.03;;
18190;SDS011;47004;51.366;12.348;2023-03-01T00:49:37;15.10;;;6.63;;
18190;SDS011;47004;51.366;12.348;2023-03-01T00:51:39;15.23;;;7.43;;
18190;SDS011;47004;51.366;12.348;2023-03-01T00:53:42;14.13;;;7.07;;
18190;SDS011;47004;51.366;12.348;2023-03-01T00:55:44;13.77;;;6.93;;
18190;SDS011;47004;51.366;12.348;2023-03-01T00:57:46;13.27;;;6.47;;
18190;SDS011;47004;51.366;12.348;2023-03-01T00:59:48;12.47;;;6.43;;
18190;SDS011;47004;51.366;12.348;2023-03-01T01:01:50;14.63;;;6.90;;
18190;SDS011;47004;51.366;12.348;2023-03-01T01:03:52;13.30;;;6.70;;
18190;SDS011;47004;51.366;12.348;2023-03-01T01:05:57;16.57;;;7.00;;
18190;SDS011;47004;51.366;12.348;2023-03-01T01:07:59;13.37;;;7.20;;
18190;SDS011;47004;51.366;12.348;2023-03-01T01:10:01;14.73;;;6.50;;
18190;SDS011;47004;51.366;12.348;2023-03-01T01:12:03;12.13;;;6.37;;
18190;SDS011;47004;51.366;12.348;2023-03-01T01:14:06;13.80;;;6.73;;
18190;SDS011;47004;51.366;12.348;2023-03-01T01:16:08;14.73;;;6.83;;
18190;SDS011;47004;51.366;12.348;2023-03-01T01:18:10;14.80;;;6.67;;
18190;SDS011;47004;51.366;12.348;2023-03-01T01:20:11;16.23;;;7.13;;
18190;SDS011;47004;51.366;12.348;2023-03-01T01:22:15;15.30;;;6.27;;
18190;SDS011;47004;51.366;12.348;2023-03-01T01:24:17;14.20;;;6.90;;
18190;SDS011;47004;51.366;12.348;2023-03-01T01:26:20;14.57;;;6.80;;
18190;SDS011;47004;51.366;12.348;2023-03-01T01:28:23;14.60;;;6.43;;
18190;SDS011;47004;51.366;12.348;2023-03-01T01:30:25;16.03;;;6.97;;
18190;SDS011;47004;51.366;12.348;2023-03-01T01:32:28;14.83;;;6.83;;
18190;SDS011;47004;51.366;12.348;2023-03-01T01:34:30;13.67;;;6.60;;
18190;SDS011;47004;51.366;12.348;2023-03-01T01:36:32;15.47;;;6.80;;
18190;SDS011;47004;51.366;12.348;2023-03-01T01:38:36;14.93;;;6.40;;
18190;SDS011;47004;51.366;12.348;2023-03-01T01:40:42;12.50;;;6.77;;
18190;SDS011;47004;51.366;12.348;2023-03-01T01:42:45;14.43;;;6.67;;
18190;SDS011;47004;51.366;12.348;2023-03-01T01:44:47;14.93;;;6.33;;
18190;SDS011;47004;51.366;12.348;2023-03-01T01:46:50;13.17;;;6.27;;
18190;SDS011;47004;51.366;12.348;2023-03-01T01:48:55;14.10;;;6.13;;
18190;SDS011;47004;51.366;12.348;2023-03-01T01:51:01;14.57;;;7.10;;
18190;SDS011;47004;51.366;12.348;2023-03-01T01:53:05;14.30;;;7.03;;
18190;SDS011;47004;51.366;12.348;2023-03-01T01:55:12;12.83;;;6.33;;
18190;SDS011;47004;51.366;12.348;2023-03-01T01:57:18;15.27;;;6.53;;
18190;SDS011;47004;51.366;12.348;2023-03-01T01:59:22;13.93;;;6.80;;
18190;SDS011;47004;51.366;12.348;2023-03-01T02:01:25;13.57;;;6.73;;
18190;SDS011;47004;51.366;12.348;2023-03-01T02:03:28;12.43;;;6.28;;
18190;SDS011;47004;51.366;12.348;2023-03-01T02:05:38;17.63;;;6.63;;
18190;SDS011;47004;51.366;12.348;2023-03-01T02:07:44;17.47;;;7.00;;
18190;SDS011;47004;51.366;12.348;2023-03-01T02:09:48;15.32;;;7.05;;
18190;SDS011;47004;51.366;12.348;2023-03-01T02:11:53;14.27;;;7.30;;
18190;SDS011;47004;51.366;12.348;2023-03-01T02:13:55;13.60;;;7.00;;
18190;SDS011;47004;51.366;12.348;2023-03-01T02:15:57;17.97;;;7.20;;
18190;SDS011;47004;51.366;12.348;2023-03-01T02:18:00;11.77;;;6.53;;
18190;SDS011;47004;51.366;12.348;2023-03-01T02:20:07;14.43;;;7.20;;
18190;SDS011;47004;51.366;12.348;2023-03-01T02:22:17;13.38;;;6.20;;
18190;SDS011;47004;51.366;12.348;2023-03-01T02:24:25;15.35;;;6.75;;
18190;SDS011;47004;51.366;12.348;2023-03-01T02:26:34;11.90;;;5.87;;
18190;SDS011;47004;51.366;12.348;2023-03-01T02:28:42;13.05;;;6.13;;
18190;SDS011;47004;51.366;12.348;2023-03-01T02:30:46;12.20;;;6.30;;
18190;SDS011;47004;51.366;12.348;2023-03-01T02:33:04;12.87;;;6.87;;
18190;SDS011;47004;51.366;12.348;2023-03-01T02:35:06;14.37;;;6.50;;
18190;SDS011;47004;51.366;12.348;2023-03-01T02:37:11;13.80;;;6.63;;
18190;SDS011;47004;51.366;12.348;2023-03-01T02:39:22;13.27;;;6.17;;
18190;SDS011;47004;51.366;12.348;2023-03-01T02:41:28;13.97;;;6.77;;
18190;SDS011;47004;51.366;12.348;2023-03-01T02:43:41;14.30;;;6.53;;
18190;SDS011;47004;51.366;12.348;2023-03-01T02:45:47;15.95;;;6.80;;
18190;SDS011;47004;51.366;12.348;2023-03-01T02:47:53;14.23;;;6.93;;
18190;SDS011;47004;51.366;12.348;2023-03-01T02:49:55;12.07;;;6.60;;
18190;SDS011;47004;51.366;12.348;2023-03-01T02:52:01;14.38;;;6.78;;
18190;SDS011;47004;51.366;12.348;2023-03-01T02:54:17;12.23;;;6.43;;
18190;SDS011;47004;51.366;12.348;2023-03-01T02:56:26;13.15;;;6.60;;
18190;SDS011;47004;51.366;12.348;2023-03-01T02:58:29;12.80;;;6.05;;
18190;SDS011;47004;51.366;12.348;2023-03-01T03:00:32;12.77;;;6.20;;
18190;SDS011;47004;51.366;12.348;2023-03-01T03:02:40;15.67;;;6.87;;
18190;SDS011;47004;51.366;12.348;2023-03-01T03:04:41;15.60;;;7.60;;
18190;SDS011;47004;51.366;12.348;2023-03-01T03:06:44;16.27;;;6.80;;
18190;SDS011;47004;51.366;12.348;2023-03-01T03:08:46;13.45;;;6.32;;
18190;SDS011;47004;51.366;12.348;2023-03-01T03:10:48;14.45;;;6.75;;
18190;SDS011;47004;51.366;12.348;2023-03-01T03:12:51;14.17;;;6.47;;
18190;SDS011;47004;51.366;12.348;2023-03-01T03:14:54;13.73;;;6.68;;
18190;SDS011;47004;51.366;12.348;2023-03-01T03:16:57;18.57;;;6.83;;
18190;SDS011;47004;51.366;12.348;2023-03-01T03:18:59;14.27;;;6.30;;
18190;SDS011;47004;51.366;12.348;2023-03-01T03:21:07;13.27;;;6.80;;
18190;SDS011;47004;51.366;12.348;2023-03-01T03:23:10;14.30;;;6.27;;
18190;SDS011;47004;51.366;12.348;2023-03-01T03:25:13;15.93;;;7.37;;
18190;SDS011;47004;51.366;12.348;2023-03-01T03:27:15;14.68;;;7.28;;
18190;SDS011;47004;51.366;12.348;2023-03-01T03:29:17;15.67;;;6.10;;
18190;SDS011;47004;51.366;12.348;2023-03-01T03:31:19;16.10;;;6.78;;
18190;SDS011;47004;51.366;12.348;2023-03-01T03:33:22;16.77;;;7.30;;
18190;SDS011;47004;51.366;12.348;2023-03-01T03:35:25;17.67;;;6.97;;
18190;SDS011;47004;51.366;12.348;2023-03-01T03:37:30;16.40;;;6.60;;
18190;SDS011;47004;51.366;12.348;2023-03-01T03:39:49;14.88;;;6.57;;
18190;SDS011;47004;51.366;12.348;2023-03-01T03:41:54;14.27;;;6.72;;
18190;SDS011;47004;51.366;12.348;2023-03-01T03:43:56;15.90;;;7.03;;
18190;SDS011;47004;51.366;12.348;2023-03-01T03:45:58;13.40;;;6.20;;
18190;SDS011;47004;51.366;12.348;2023-03-01T03:48:00;14.30;;;7.40;;
18190;SDS011;47004;51.366;12.348;2023-03-01T03:50:08;12.63;;;6.72;;
18190;SDS011;47004;51.366;12.348;2023-03-01T03:52:13;16.60;;;7.23;;
18190;SDS011;47004;51.366;12.348;2023-03-01T03:54:15;14.93;;;6.75;;
18190;SDS011;47004;51.366;12.348;2023-03-01T03:56:18;14.98;;;7.18;;
18190;SDS011;47004;51.366;12.348;2023-03-01T03:58:20;14.32;;;6.90;;
18190;SDS011;47004;51.366;12.348;2023-03-01T04:00:23;14.43;;;6.18;;
18190;SDS011;47004;51.366;12.348;2023-03-01T04:02:25;15.27;;;7.60;;
18190;SDS011;47004;51.366;12.348;2023-03-01T04:04:27;17.27;;;7.90;;
18190;SDS011;47004;51.366;12.348;2023-03-01T04:06:31;15.60;;;7.20;;
18190;SDS011;47004;51.366;12.348;2023-03-01T04:08:33;16.05;;;6.85;;
18190;SDS011;47004;51.366;12.348;2023-03-01T04:10:36;18.05;;;7.53;;
18190;SDS011;47004;51.366;12.348;2023-03-01T04:12:39;22.45;;;7.45;;
18190;SDS011;47004;51.366;12.348;2023-03-01T04:14:43;13.80;;;6.40;;
18190;SDS011;47004;51.366;12.348;2023-03-01T04:16:45;17.67;;;7.53;;
18190;SDS011;47004;51.366;12.348;2023-03-01T04:18:47;15.68;;;7.40;;
18190;SDS011;47004;51.366;12.348;2023-03-01T04:20:49;17.50;;;7.97;;
18190;SDS011;47004;51.366;12.348;2023-03-01T04:22:57;16.05;;;7.32;;
18190;SDS011;47004;51.366;12.348;2023-03-01T04:25:10;16.20;;;7.38;;
18190;SDS011;47004;51.366;12.348;2023-03-01T04:27:14;19.45;;;7.45;;
18190;SDS011;47004;51.366;12.348;2023-03-01T04:29:15;14.20;;;7.10;;
18190;SDS011;47004;51.366;12.348;2023-03-01T04:31:18;14.67;;;7.00;;
18190;SDS011;47004;51.366;12.348;2023-03-01T04:33:21;16.42;;;7.50;;
18190;SDS011;47004;51.366;12.348;2023-03-01T04:35:24;16.58;;;7.72;;
18190;SDS011;47004;51.366;12.348;2023-03-01T04:37:25;15.32;;;6.97;;
18190;SDS011;47004;51.366;12.348;2023-03-01T04:39:29;17.57;;;8.17;;
18190;SDS011;47004;51.366;12.348;2023-03-01T04:41:32;20.60;;;7.93;;
18190;SDS011;47004;51.366;12.348;2023-03-01T04:43:34;17.38;;;7.75;;
18190;SDS011;47004;51.366;12.348;2023-03-01T04:45:37;17.77;;;8.45;;
18190;SDS011;47004;51.366;12.348;2023-03-01T04:47:42;18.83;;;8.55;;
18190;SDS011;47004;51.366;12.348;2023-03-01T04:49:46;17.02;;;7.88;;
18190;SDS011;47004;51.366;12.348;2023-03-01T04:51:47;19.33;;;8.45;;
18190;SDS011;47004;51.366;12.348;2023-03-01T04:53:49;17.15;;;8.75;;
18190;SDS011;47004;51.366;12.348;2023-03-01T04:55:53;24.00;;;8.50;;
18190;SDS011;47004;51.366;12.348;2023-03-01T04:57:55;19.23;;;8.73;;
18190;SDS011;47004;51.366;12.348;2023-03-01T04:59:57;18.30;;;9.02;;
18190;SDS011;47004;51.366;12.348;2023-03-01T05:01:59;19.20;;;8.07;;
18190;SDS011;47004;51.366;12.348;2023-03-01T05:04:01;18.52;;;8.70;;
18190;SDS011;47004;51.366;12.348;2023-03-01T05:06:05;16.73;;;8.38;;
18190;SDS011;47004;51.366;12.348;2023-03-01T05:08:07;19.92;;;8.18;;
18190;SDS011;47004;51.366;12.348;2023-03-01T05:10:17;19.33;;;8.75;;
18190;SDS011;47004;51.366;12.348;2023-03-01T05:12:20;16.77;;;7.82;;
18190;SDS011;47004;51.366;12.348;2023-03-01T05:14:22;17.88;;;7.93;;
18190;SDS011;47004;51.366;12.348;2023-03-01T05:16:24;17.15;;;7.97;;
18190;SDS011;47004;51.366;12.348;2023-03-01T05:18:27;16.38;;;7.38;;
18190;SDS011;47004;51.366;12.348;2023-03-01T05:20:30;19.90;;;7.95;;
18190;SDS011;47004;51.366;12.348;2023-03-01T05:22:32;17.77;;;8.30;;
18190;SDS011;47004;51.366;12.348;2023-03-01T05:24:34;16.15;;;7.40;;
18190;SDS011;47004;51.366;12.348;2023-03-01T05:26:38;15.15;;;7.55;;
18190;SDS011;47004;51.366;12.348;2023-03-01T05:28:42;16.83;;;7.32;;
18190;SDS011;47004;51.366;12.348;2023-03-01T05:30:45;19.90;;;7.65;;
18190;SDS011;47004;51.366;12.348;2023-03-01T05:32:48;15.73;;;7.15;;
18190;SDS011;47004;51.366;12.348;2023-03-01T05:34:55;16.40;;;7.40;;
18190;SDS011;47004;51.366;12.348;2023-03-01T05:36:57;18.10;;;7.75;;
18190;SDS011;47004;51.366;12.348;2023-03-01T05:39:00;16.75;;;7.38;;
18190;SDS011;47004;51.366;12.348;2023-03-01T05:41:02;18.00;;;7.70;;
18190;SDS011;47004;51.366;12.348;2023-03-01T05:43:04;14.85;;;7.18;;
18190;SDS011;47004;51.366;12.348;2023-03-01T05:45:08;15.13;;;7.15;;
18190;SDS011;47004;51.366;12.348;2023-03-01T05:47:12;18.23;;;7.72;;
18190;SDS011;47004;51.366;12.348;2023-03-01T05:49:14;16.33;;;7.88;;
18190;SDS011;47004;51.366;12.348;2023-03-01T05:51:16;14.52;;;7.13;;
18190;SDS011;47004;51.366;12.348;2023-03-01T05:53:19;17.08;;;7.63;;
18190;SDS011;47004;51.366;12.348;2023-03-01T05:55:21;16.20;;;7.47;;
18190;SDS011;47004;51.366;12.348;2023-03-01T05:57:23;14.63;;;7.00;;
18190;SDS011;47004;51.366;12.348;2023-03-01T05:59:25;16.77;;;7.47;;
18190;SDS011;47004;51.366;12.348;2023-03-01T06:01:29;17.27;;;7.97;;
18190;SDS011;47004;51.366;12.348;2023-03-01T06:03:31;19.63;;;7.85;;
18190;SDS011;47004;51.366;12.348;2023-03-01T06:05:34;17.58;;;7.50;;
18190;SDS011;47004;51.366;12.348;2023-03-01T06:07:36;17.67;;;7.60;;
18190;SDS011;47004;51.366;12.348;2023-03-01T06:09:38;20.65;;;9.07;;
18190;SDS011;47004;51.366;12.348;2023-03-01T06:11:40;19.88;;;8.45;;
18190;SDS011;47004;51.366;12.348;2023-03-01T06:13:42;17.63;;;8.25;;
18190;SDS011;47004;51.366;12.348;2023-03-01T06:15:44;20.67;;;9.02;;
18190;SDS011;47004;51.366;12.348;2023-03-01T06:17:48;20.52;;;9.05;;
18190;SDS011;47004;51.366;12.348;2023-03-01T06:19:50;18.10;;;8.80;;
18190;SDS011;47004;51.366;12.348;2023-03-01T06:21:52;19.02;;;8.20;;
18190;SDS011;47004;51.366;12.348;2023-03-01T06:23:54;20.25;;;9.40;;
18190;SDS011;47004;51.366;12.348;2023-03-01T06:25:56;18.10;;;8.57;;
18190;SDS011;47004;51.366;12.348;2023-03-01T06:27:58;19.63;;;9.00;;
18190;SDS011;47004;51.366;12.348;2023-03-01T06:30:00;19.48;;;8.52;;
18190;SDS011;47004;51.366;12.348;2023-03-01T06:32:02;19.92;;;9.13;;
18190;SDS011;47004;51.366;12.348;2023-03-01T06:34:05;20.45;;;8.82;;
18190;SDS011;47004;51.366;12.348;2023-03-01T06:36:07;22.13;;;8.82;;
18190;SDS011;47004;51.366;12.348;2023-03-01T06:38:10;17.65;;;8.57;;
18190;SDS011;47004;51.366;12.348;2023-03-01T06:40:14;17.17;;;7.78;;
18190;SDS011;47004;51.366;12.348;2023-03-01T06:42:17;18.98;;;8.88;;
18190;SDS011;47004;51.366;12.348;2023-03-01T06:44:18;19.55;;;8.75;;
18190;SDS011;47004;51.366;12.348;2023-03-01T06:46:20;17.35;;;8.60;;
18190;SDS011;47004;51.366;12.348;2023-03-01T06:48:22;20.33;;;8.80;;
18190;SDS011;47004;51.366;12.348;2023-03-01T06:50:26;22.08;;;9.18;;
18190;SDS011;47004;51.366;12.348;2023-03-01T06:52:28;18.05;;;8.52;;
18190;SDS011;47004;51.366;12.348;2023-03-01T06:54:30;18.73;;;8.88;;
18190;SDS011;47004;51.366;12.348;2023-03-01T06:56:32;18.40;;;8.27;;
18190;SDS011;47004;51.366;12.348;2023-03-01T06:58:34;18.52;;;8.60;;
18190;SDS011;47004;51.366;12.348;2023-03-01T07:00:36;21.67;;;9.18;;
18190;SDS011;47004;51.366;12.348;2023-03-01T07:02:41;18.15;;;8.65;;
18190;SDS011;47004;51.366;12.348;2023-03-01T07:04:43;18.83;;;8.75;;
18190;SDS011;47004;51.366;12.348;2023-03-01T07:06:47;18.05;;;8.32;;
18190;SDS011;47004;51.366;12.348;2023-03-01T07:08:55;18.33;;;8.75;;
18190;SDS011;47004;51.366;12.348;2023-03-01T07:10:58;23.10;;;9.15;;
18190;SDS011;47004;51.366;12.348;2023-03-01T07:13:02;19.20;;;8.57;;
18190;SDS011;47004;51.366;12.348;2023-03-01T07:15:04;19.02;;;8.85;;
18190;SDS011;47004;51.366;12.348;2023-03-01T07:17:09;17.90;;;8.23;;
18190;SDS011;47004;51.366;12.348;2023-03-01T07:19:11;20.40;;;8.95;;
18190;SDS011;47004;51.366;12.348;2023-03-01T07:21:13;17.55;;;8.65;;
18190;SDS011;47004;51.366;12.348;2023-03-01T07:23:17;17.15;;;8.25;;
18190;SDS011;47004;51.366;12.348;2023-03-01T07:25:19;17.88;;;8.23;;
18190;SDS011;47004;51.366;12.348;2023-03-01T07:27:21;21.92;;;9.18;;
18190;SDS011;47004;51.366;12.348;2023-03-01T07:29:25;16.08;;;8.07;;
18190;SDS011;47004;51.366;12.348;2023-03-01T07:31:28;18.63;;;8.65;;
18190;SDS011;47004;51.366;12.348;2023-03-01T07:33:30;20.20;;;8.10;;
18190;SDS011;47004;51.366;12.348;2023-03-01T07:35:32;20.43;;;8.47;;
18190;SDS011;47004;51.366;12.348;2023-03-01T07:37:34;19.10;;;9.00;;
18190;SDS011;47004;51.366;12.348;2023-03-01T07:39:37;21.13;;;10.05;;
18190;SDS011;47004;51.366;12.348;2023-03-01T07:41:39;19.17;;;8.70;;
18190;SDS011;47004;51.366;12.348;2023-03-01T07:43:41;21.80;;;9.10;;
18190;SDS011;47004;51.366;12.348;2023-03-01T07:45:43;18.73;;;8.63;;
18190;SDS011;47004;51.366;12.348;2023-03-01T07:47:45;23.17;;;9.00;;
18190;SDS011;47004;51.366;12.348;2023-03-01T07:49:47;18.43;;;9.37;;
18190;SDS011;47004;51.366;12.348;2023-03-01T07:51:49;18.90;;;8.47;;
18190;SDS011;47004;51.366;12.348;2023-03-01T07:53:51;16.37;;;8.47;;
18190;SDS011;47004;51.366;12.348;2023-03-01T07:56:01;23.23;;;9.57;;
18190;SDS011;47004;51.366;12.348;2023-03-01T07:58:04;18.17;;;8.77;;
18190;SDS011;47004;51.366;12.348;2023-03-01T08:00:06;22.47;;;9.57;;
18190;SDS011;47004;51.366;12.348;2023-03-01T08:02:09;18.33;;;9.00;;
18190;SDS011;47004;51.366;12.348;2023-03-01T08:04:11;25.77;;;10.00;;
18190;SDS011;47004;51.366;12.348;2023-03-01T08:06:14;23.00;;;10.27;;
18190;SDS011;47004;51.366;12.348;2023-03-01T08:08:17;21.83;;;9.70;;
18190;SDS011;47004;51.366;12.348;2023-03-01T08:10:19;24.33;;;11.00;;
18190;SDS011;47004;51.366;12.348;2023-03-01T08:12:23;20.00;;;9.13;;
18190;SDS011;47004;51.366;12.348;2023-03-01T08:14:25;21.97;;;10.17;;
18190;SDS011;47004;51.366;12.348;2023-03-01T08:16:27;22.53;;;10.03;;
18190;SDS011;47004;51.366;12.348;2023-03-01T08:18:28;26.73;;;10.40;;
18190;SDS011;47004;51.366;12.348;2023-03-01T08:20:30;20.97;;;10.10;;
18190;SDS011;47004;51.366;12.348;2023-03-01T08:22:32;27.57;;;10.90;;
18190;SDS011;47004;51.366;12.348;2023-03-01T08:24:34;22.93;;;10.83;;
18190;SDS011;47004;51.366;12.348;2023-03-01T08:26:36;29.37;;;12.13;;
18190;SDS011;47004;51.366;12.348;2023-03-01T08:28:40;26.13;;;10.67;;
18190;SDS011;47004;51.366;12.348;2023-03-01T08:30:42;28.07;;;12.37;;
18190;SDS011;47004;51.366;12.348;2023-03-01T08:32:44;24.37;;;10.70;;
18190;SDS011;47004;51.366;12.348;2023-03-01T08:34:46;30.60;;;11.57;;
18190;SDS011;47004;51.366;12.348;2023-03-01T08:36:48;29.23;;;11.33;;
18190;SDS011;47004;51.366;12.348;2023-03-01T08:38:52;27.47;;;11.40;;
18190;SDS011;47004;51.366;12.348;2023-03-01T08:40:54;24.53;;;11.40;;
18190;SDS011;47004;51.366;12.348;2023-03-01T08:42:58;20.83;;;10.20;;
18190;SDS011;47004;51.366;12.348;2023-03-01T08:45:01;25.33;;;11.67;;
18190;SDS011;47004;51.366;12.348;2023-03-01T08:47:03;22.67;;;9.67;;
18190;SDS011;47004;51.366;12.348;2023-03-01T08:49:05;24.93;;;10.93;;
18190;SDS011;47004;51.366;12.348;2023-03-01T08:51:08;27.40;;;10.73;;
18190;SDS011;47004;51.366;12.348;2023-03-01T08:53:10;30.17;;;12.80;;
18190;SDS011;47004;51.366;12.348;2023-03-01T08:55:12;25.47;;;11.17;;
18190;SDS011;47004;51.366;12.348;2023-03-01T08:57:16;24.80;;;10.87;;
18190;SDS011;47004;51.366;12.348;2023-03-01T08:59:18;28.47;;;11.30;;
18190;SDS011;47004;51.366;12.348;2023-03-01T09:01:21;27.57;;;11.47;;
18190;SDS011;47004;51.366;12.348;2023-03-01T09:03:23;28.20;;;12.40;;
18190;SDS011;47004;51.366;12.348;2023-03-01T09:05:25;28.33;;;11.17;;
18190;SDS011;47004;51.366;12.348;2023-03-01T09:07:27;24.00;;;11.27;;
18190;SDS011;47004;51.366;12.348;2023-03-01T09:09:29;31.50;;;11.77;;
18190;SDS011;47004;51.366;12.348;2023-03-01T09:11:31;27.87;;;12.03;;
18190;SDS011;47004;51.366;12.348;2023-03-01T09:13:34;28.67;;;12.43;;
18190;SDS011;47004;51.366;12.348;2023-03-01T09:15:38;26.77;;;12.27;;
18190;SDS011;47004;51.366;12.348;2023-03-01T09:17:41;31.20;;;12.47;;
18190;SDS011;47004;51.366;12.348;2023-03-01T09:19:43;28.10;;;12.50;;
18190;SDS011;47004;51.366;12.348;2023-03-01T09:21:45;28.13;;;12.27;;
18190;SDS011;47004;51.366;12.348;2023-03-01T09:23:52;29.77;;;12.47;;
18190;SDS011;47004;51.366;12.348;2023-03-01T09:25:54;27.07;;;12.27;;
18190;SDS011;47004;51.366;12.348;2023-03-01T09:27:56;24.03;;;11.60;;
18190;SDS011;47004;51.366;12.348;2023-03-01T09:29:57;32.47;;;13.07;;
18190;SDS011;47004;51.366;12.348;2023-03-01T09:31:59;27.33;;;11.63;;
18190;SDS011;47004;51.366;12.348;2023-03-01T09:34:03;28.13;;;11.93;;
18190;SDS011;47004;51.366;12.348;2023-03-01T09:36:06;26.90;;;11.77;;
18190;SDS011;47004;51.366;12.348;2023-03-01T09:38:11;28.57;;;11.50;;
18190;SDS011;47004;51.366;12.348;2023-03-01T09:40:15;26.23;;;11.57;;
18190;SDS011;47004;51.366;12.348;2023-03-01T09:42:20;26.17;;;11.87;;
18190;SDS011;47004;51.366;12.348;2023-03-01T09:44:27;30.13;;;11.97;;
18190;SDS011;47004;51.366;12.348;2023-03-01T09:46:40;28.83;;;11.87;;
18190;SDS011;47004;51.366;12.348;2023-03-01T09:48:44;29.97;;;12.93;;
18190;SDS011;47004;51.366;12.348;2023-03-01T09:50:54;29.40;;;12.73;;
18190;SDS011;47004;51.366;12.348;2023-03-01T09:53:00;26.93;;;12.37;;
18190;SDS011;47004;51.366;12.348;2023-03-01T09:55:04;26.70;;;12.07;;
18190;SDS011;47004;51.366;12.348;2023-03-01T09:57:17;27.97;;;11.60;;
18190;SDS011;47004;51.366;12.348;2023-03-01T09:59:23;27.37;;;11.73;;
18190;SDS011;47004;51.366;12.348;2023-03-01T10:01:30;27.40;;;12.43;;
18190;SDS011;47004;51.366;12.348;2023-03-01T10:03:36;29.20;;;12.90;;
18190;SDS011;47004;51.366;12.348;2023-03-01T10:05:45;28.60;;;12.47;;
18190;SDS011;47004;51.366;12.348;2023-03-01T10:08:00;25.60;;;12.10;;
18190;SDS011;47004;51.366;12.348;2023-03-01T10:10:16;30.33;;;12.50;;
18190;SDS011;47004;51.366;12.348;2023-03-01T10:12:30;28.23;;;11.80;;
18190;SDS011;47004;51.366;12.348;2023-03-01T10:14:37;31.00;;;12.27;;
18190;SDS011;47004;51.366;12.348;2023-03-01T10:16:47;28.67;;;12.90;;
18190;SDS011;47004;51.366;12.348;2023-03-01T10:18:55;27.53;;;12.33;;
18190;SDS011;47004;51.366;12.348;2023-03-01T10:21:00;26.17;;;11.70;;
18190;SDS011;47004;51.366;12.348;2023-03-01T10:23:07;28.67;;;11.93;;
18190;SDS011;47004;51.366;12.348;2023-03-01T10:25:12;27.20;;;11.90;;
18190;SDS011;47004;51.366;12.348;2023-03-01T10:27:16;26.47;;;11.70;;
18190;SDS011;47004;51.366;12.348;2023-03-01T10:29:26;24.10;;;11.73;;
18190;SDS011;47004;51.366;12.348;2023-03-01T10:31:37;26.33;;;11.83;;
18190;SDS011;47004;51.366;12.348;2023-03-01T10:33:42;28.40;;;11.83;;
18190;SDS011;47004;51.366;12.348;2023-03-01T10:35:44;23.63;;;11.33;;
18190;SDS011;47004;51.366;12.348;2023-03-01T10:37:56;22.00;;;10.77;;
18190;SDS011;47004;51.366;12.348;2023-03-01T10:40:02;23.57;;;11.27;;
18190;SDS011;47004;51.366;12.348;2023-03-01T10:42:20;23.90;;;11.73;;
18190;SDS011;47004;51.366;12.348;2023-03-01T10:44:37;23.83;;;10.33;;
18190;SDS011;47004;51.366;12.348;2023-03-01T10:46:41;23.07;;;10.97;;
18190;SDS011;47004;51.366;12.348;2023-03-01T10:48:43;27.20;;;11.30;;
18190;SDS011;47004;51.366;12.348;2023-03-01T10:50:46;22.07;;;10.93;;
18190;SDS011;47004;51.366;12.348;2023-03-01T10:52:55;24.57;;;11.07;;
18190;SDS011;47004;51.366;12.348;2023-03-01T10:55:08;21.60;;;10.57;;
18190;SDS011;47004;51.366;12.348;2023-03-01T10:57:30;28.93;;;11.87;;
18190;SDS011;47004;51.366;12.348;2023-03-01T10:59:36;24.50;;;11.30;;
18190;SDS011;47004;51.366;12.348;2023-03-01T11:01:39;22.57;;;11.43;;
18190;SDS011;47004;51.366;12.348;2023-03-01T11:03:41;26.50;;;12.07;;
18190;SDS011;47004;51.366;12.348;2023-03-01T11:05:54;28.53;;;13.27;;
18190;SDS011;47004;51.366;12.348;2023-03-01T11:08:02;26.90;;;12.60;;
18190;SDS011;47004;51.366;12.348;2023-03-01T11:10:15;26.37;;;12.83;;
18190;SDS011;47004;51.366;12.348;2023-03-01T11:12:19;22.57;;;11.77;;
18190;SDS011;47004;51.366;12.348;2023-03-01T11:14:24;25.53;;;12.40;;
18190;SDS011;47004;51.366;12.348;2023-03-01T11:16:31;24.97;;;12.07;;
18190;SDS011;47004;51.366;12.348;2023-03-01T11:18:35;24.87;;;11.67;;
18190;SDS011;47004;51.366;12.348;2023-03-01T11:20:37;22.73;;;11.37;;
18190;SDS011;47004;51.366;12.348;2023-03-01T11:22:41;24.33;;;12.07;;
18190;SDS011;47004;51.366;12.348;2023-03-01T11:24:49;23.20;;;11.70;;
18190;SDS011;47004;51.366;12.348;2023-03-01T11:26:54;22.47;;;11.10;;
18190;SDS011;47004;51.366;12.348;2023-03-01T11:28:58;23.10;;;11.13;;
18190;SDS011;47004;51.366;12.348;2023-03-01T11:31:06;23.83;;;11.40;;
18190;SDS011;47004;51.366;12.348;2023-03-01T11:33:13;24.67;;;11.73;;
18190;SDS011;47004;51.366;12.348;2023-03-01T11:35:20;27.67;;;11.23;;
18190;SDS011;47004;51.366;12.348;2023-03-01T11:37:30;26.50;;;12.23;;
18190;SDS011;47004;51.366;12.348;2023-03-01T11:39:37;22.37;;;10.53;;
18190;SDS011;47004;51.366;12.348;2023-03-01T11:41:44;25.00;;;11.57;;
18190;SDS011;47004;51.366;12.348;2023-03-01T11:43:55;23.73;;;11.20;;
18190;SDS011;47004;51.366;12.348;2023-03-01T11:46:13;20.77;;;10.20;;
18190;SDS011;47004;51.366;12.348;2023-03-01T11:48:32;21.80;;;10.57;;
18190;SDS011;47004;51.366;12.348;2023-03-01T11:50:43;21.53;;;11.03;;
18190;SDS011;47004;51.366;12.348;2023-03-01T11:52:56;23.50;;;11.20;;
18190;SDS011;47004;51.366;12.348;2023-03-01T11:55:24;20.60;;;10.70;;
18190;SDS011;47004;51.366;12.348;2023-03-01T11:57:37;24.50;;;12.03;;
18190;SDS011;47004;51.366;12.348;2023-03-01T11:59:53;21.33;;;11.00;;
18190;SDS011;47004;51.366;12.348;2023-03-01T12:02:27;21.57;;;10.43;;
18190;SDS011;47004;51.366;12.348;2023-03-01T12:07:20;19.57;;;10.50;;